Time;durP1;ratioP1;P1;durP2;ratioP2;P2;SDS_P1;SDS_P2;PMS_P1;PMS_P2;Temp;Humidity;BMP_temperature;BMP_pressure;BME280_temperature;BME280_humidity;BME280_pressure;Samples;Min_cycle;Max_cycle;Signal;HPM_P1;HPM_P2
2022/12/26 00:01:30;;;;;;;10.57;7.45;;;11.50;99.90;;;;;;5060449;28;20109;-61
2022/12/26 00:03:56;;;;;;;11.38;6.97;;;11.50;99.90;;;;;;5060577;28;20040;-61
2022/12/26 00:06:24;;;;;;;8.93;6.47;;;11.50;99.90;;;;;;5056861;28;20593;-61
2022/12/26 00:08:50;;;;;;;11.55;6.80;;;11.50;99.90;;;;;;5066103;28;20481;-61
2022/12/26 00:11:16;;;;;;;8.75;6.35;;;11.50;99.90;;;;;;5056385;28;20041;-61
2022/12/26 00:13:42;;;;;;;10.13;6.15;;;11.40;99.90;;;;;;5054801;28;20476;-61
2022/12/26 00:16:10;;;;;;;10.10;6.32;;;11.40;99.90;;;;;;5055854;28;20484;-62
2022/12/26 00:18:36;;;;;;;10.70;6.85;;;11.40;99.90;;;;;;5059863;28;20598;-61
2022/12/26 00:21:01;;;;;;;10.00;6.63;;;11.40;99.90;;;;;;5053188;28;20113;-61
2022/12/26 00:23:27;;;;;;;10.88;6.88;;;11.30;99.90;;;;;;5061936;28;20032;-60
2022/12/26 00:25:52;;;;;;;9.98;6.97;;;11.30;99.90;;;;;;5066809;28;20104;-60
2022/12/26 00:28:18;;;;;;;11.85;6.55;;;11.30;99.90;;;;;;5055393;28;20442;-60
2022/12/26 00:30:43;;;;;;;9.60;6.70;;;11.40;99.90;;;;;;5055682;28;20033;-60
2022/12/26 00:33:09;;;;;;;9.98;6.60;;;11.50;99.90;;;;;;5057240;28;20067;-60
2022/12/26 00:35:35;;;;;;;9.77;6.07;;;11.50;99.90;;;;;;5057296;28;20036;-60
2022/12/26 00:38:00;;;;;;;12.23;6.78;;;11.60;99.90;;;;;;5056127;28;20045;-60
2022/12/26 00:40:26;;;;;;;9.52;6.72;;;11.60;99.90;;;;;;5054905;28;20760;-60
2022/12/26 00:42:51;;;;;;;10.73;7.78;;;11.60;99.90;;;;;;5056563;28;20542;-61
2022/12/26 00:45:17;;;;;;;14.32;7.20;;;11.70;99.90;;;;;;5063036;28;20446;-60
2022/12/26 00:47:43;;;;;;;10.55;7.80;;;11.70;99.90;;;;;;5060820;28;20037;-60
2022/12/26 00:50:09;;;;;;;12.02;7.80;;;11.70;99.90;;;;;;5058113;28;20120;-61
2022/12/26 00:52:34;;;;;;;11.95;7.72;;;11.70;99.90;;;;;;5059262;28;20098;-60
2022/12/26 00:55:00;;;;;;;15.75;8.82;;;11.70;99.90;;;;;;5054985;28;20876;-61
2022/12/26 00:57:25;;;;;;;13.90;9.35;;;11.60;99.90;;;;;;5053332;28;20052;-60
2022/12/26 00:59:51;;;;;;;14.68;9.30;;;11.60;99.90;;;;;;5060076;28;20057;-61
2022/12/26 01:05:01;;;;;;;13.57;8.73;;;11.60;99.90;;;;;;5058435;28;20090;-60
2022/12/26 01:07:26;;;;;;;11.52;8.60;;;11.50;99.90;;;;;;5059950;28;20115;-60
2022/12/26 01:09:52;;;;;;;10.27;7.80;;;11.40;99.90;;;;;;5049267;28;20463;-61
2022/12/26 01:12:17;;;;;;;13.25;9.25;;;11.40;99.90;;;;;;5066064;28;20033;-61
2022/12/26 01:14:43;;;;;;;10.27;7.90;;;11.30;99.90;;;;;;5055060;28;20024;-61
2022/12/26 01:17:09;;;;;;;12.18;8.80;;;11.40;99.90;;;;;;5063324;28;20062;-61
2022/12/26 01:19:34;;;;;;;10.70;7.60;;;11.40;99.90;;;;;;5055605;28;20781;-60
2022/12/26 01:22:00;;;;;;;8.20;6.88;;;11.40;99.90;;;;;;5066950;28;20047;-60
2022/12/26 01:24:25;;;;;;;9.55;7.15;;;11.40;99.90;;;;;;5065101;28;20492;-60
2022/12/26 01:26:51;;;;;;;9.15;6.60;;;11.40;99.90;;;;;;5062449;28;20036;-61
2022/12/26 01:29:17;;;;;;;11.27;6.63;;;11.30;99.90;;;;;;5061154;28;20039;-60
2022/12/26 01:31:42;;;;;;;11.68;7.47;;;11.40;99.90;;;;;;5067088;28;20578;-60
2022/12/26 01:34:09;;;;;;;10.55;7.57;;;11.50;99.90;;;;;;5062590;28;20089;-60
2022/12/26 01:36:34;;;;;;;9.35;7.47;;;11.60;99.90;;;;;;5065935;28;20487;-60
2022/12/26 01:39:00;;;;;;;10.70;7.65;;;11.40;99.90;;;;;;5066572;28;20062;-60
2022/12/26 01:41:26;;;;;;;13.15;7.90;;;11.40;99.90;;;;;;5063819;28;20086;-60
2022/12/26 01:43:52;;;;;;;10.90;8.35;;;11.50;99.90;;;;;;5063549;28;20127;-60
2022/12/26 01:46:30;;;;;;;13.05;9.25;;;11.50;99.90;;;;;;5067799;28;20169;-60
2022/12/26 01:49:06;;;;;;;13.20;8.70;;;11.40;99.90;;;;;;5063405;28;20532;-60
2022/12/26 01:51:37;;;;;;;12.23;9.13;;;11.50;99.90;;;;;;5058320;28;20237;-61
2022/12/26 01:54:07;;;;;;;13.73;9.68;;;11.40;99.90;;;;;;5063120;28;20026;-61
2022/12/26 01:56:38;;;;;;;12.77;8.98;;;11.50;99.90;;;;;;5062147;28;20803;-61
2022/12/26 01:59:27;;;;;;;12.30;8.85;;;11.40;99.90;;;;;;5072636;28;20040;-61
2022/12/26 02:01:53;;;;;;;9.57;8.00;;;11.20;99.90;;;;;;5063791;28;20086;-60
2022/12/26 02:07:11;;;;;;;9.52;7.90;;;11.30;99.90;;;;;;5061907;28;20039;-61
2022/12/26 02:09:37;;;;;;;11.00;7.50;;;11.40;99.90;;;;;;5063088;28;20032;-61
2022/12/26 02:12:19;;;;;;;11.32;7.93;;;11.50;99.90;;;;;;5068052;28;20039;-61
2022/12/26 02:14:46;;;;;;;10.35;7.65;;;11.60;99.90;;;;;;5065124;28;20028;-61
2022/12/26 02:17:12;;;;;;;9.48;7.55;;;11.50;99.90;;;;;;5066032;28;20044;-61
2022/12/26 02:19:47;;;;;;;9.52;7.38;;;11.50;99.90;;;;;;5063766;28;20110;-61
2022/12/26 02:22:46;;;;;;;8.38;6.72;;;11.50;99.90;;;;;;5060906;28;20502;-61
2022/12/26 02:25:37;;;;;;;8.75;6.78;;;11.30;99.90;;;;;;5063595;28;20049;-61
2022/12/26 02:28:26;;;;;;;8.35;6.55;;;11.40;99.90;;;;;;5061424;28;20052;-61
2022/12/26 02:31:07;;;;;;;8.63;6.55;;;11.40;99.90;;;;;;5071373;28;20509;-61
2022/12/26 02:33:51;;;;;;;10.60;7.35;;;11.40;99.90;;;;;;5059600;28;20063;-61
2022/12/26 02:36:49;;;;;;;9.88;7.05;;;11.40;99.90;;;;;;5062675;28;20037;-61
2022/12/26 02:39:38;;;;;;;9.23;6.93;;;11.30;99.90;;;;;;5064311;28;20036;-61
2022/12/26 02:42:22;;;;;;;9.32;7.28;;;11.40;99.90;;;;;;5066284;28;20060;-61
2022/12/26 02:48:04;;;;;;;12.70;9.17;;;11.20;99.90;;;;;;5058466;28;20424;-61
2022/12/26 03:14:40;;;;;;;16.75;12.50;;;11.20;99.90;;;;;;5069694;28;20446;-61
2022/12/26 03:17:18;;;;;;;15.32;12.52;;;11.20;99.90;;;;;;5059249;28;20035;-61
2022/12/26 03:20:00;;;;;;;15.57;12.95;;;11.10;99.90;;;;;;5064141;28;20127;-61
2022/12/26 03:22:33;;;;;;;20.02;13.75;;;11.00;99.90;;;;;;5055256;28;20031;-60
2022/12/26 03:27:46;;;;;;;15.77;13.57;;;11.00;99.90;;;;;;5064146;28;20102;-61
2022/12/26 03:32:57;;;;;;;16.35;12.80;;;10.90;99.90;;;;;;5057962;28;20116;-61
2022/12/26 03:35:24;;;;;;;18.85;13.88;;;11.00;99.90;;;;;;5066515;28;20495;-60
2022/12/26 03:38:00;;;;;;;15.07;13.05;;;10.90;99.90;;;;;;5076421;28;20052;-61
2022/12/26 04:20:28;;;;;;;15.77;13.43;;;10.90;99.90;;;;;;5043626;28;20094;-61
2022/12/26 04:46:26;;;;;;;16.13;12.52;;;10.60;99.90;;;;;;5064875;28;20113;-60
2022/12/26 04:51:37;;;;;;;16.77;13.05;;;10.70;99.90;;;;;;5063634;28;21543;-60
2022/12/26 04:54:04;;;;;;;17.13;11.98;;;10.70;99.90;;;;;;5064477;28;20033;-60
2022/12/26 04:56:30;;;;;;;17.30;12.05;;;10.50;99.90;;;;;;5063384;28;20021;-60
2022/12/26 04:58:55;;;;;;;14.95;11.98;;;10.50;99.90;;;;;;5063740;28;20035;-60
2022/12/26 05:09:34;;;;;;;15.23;11.90;;;10.70;99.90;;;;;;5067365;28;20131;-60
2022/12/26 05:12:05;;;;;;;14.90;11.25;;;10.60;99.90;;;;;;5073867;28;20044;-60
2022/12/26 05:14:30;;;;;;;15.38;11.40;;;10.50;99.90;;;;;;5073024;28;20028;-60
2022/12/26 05:30:46;;;;;;;13.38;9.60;;;10.40;99.90;;;;;;5066809;28;20097;-60
2022/12/26 05:35:56;;;;;;;13.15;10.23;;;10.60;99.90;;;;;;5062074;28;20071;-60
2022/12/26 05:38:22;;;;;;;14.25;9.70;;;10.60;99.90;;;;;;5061803;28;20049;-60
2022/12/26 05:40:47;;;;;;;15.38;9.63;;;10.70;99.90;;;;;;5059348;28;20028;-61
2022/12/26 05:43:13;;;;;;;14.82;10.30;;;10.60;99.90;;;;;;5063590;28;20127;-60
2022/12/26 05:45:38;;;;;;;14.05;10.73;;;10.50;99.90;;;;;;5064146;28;20032;-60
2022/12/26 05:48:04;;;;;;;14.40;9.98;;;10.50;99.90;;;;;;5063653;28;20047;-60
2022/12/26 05:50:30;;;;;;;12.77;9.20;;;10.50;99.90;;;;;;5052499;28;20028;-60
2022/12/26 05:52:56;;;;;;;12.63;9.18;;;10.40;99.90;;;;;;5058922;28;20074;-60
2022/12/26 05:55:23;;;;;;;14.02;9.55;;;10.40;99.90;;;;;;5060510;28;20040;-60
2022/12/26 05:57:49;;;;;;;14.82;9.85;;;10.40;99.90;;;;;;5062639;28;20512;-60
2022/12/26 06:00:15;;;;;;;17.55;9.93;;;10.40;99.90;;;;;;5059797;28;20060;-61
2022/12/26 06:02:41;;;;;;;14.77;10.00;;;10.50;99.90;;;;;;5065119;28;20048;-61
2022/12/26 06:05:07;;;;;;;12.75;9.55;;;10.50;99.90;;;;;;5064534;28;20557;-60
2022/12/26 06:07:32;;;;;;;12.13;9.38;;;10.50;99.90;;;;;;5063613;28;20036;-60
2022/12/26 06:09:58;;;;;;;14.90;9.73;;;10.40;99.90;;;;;;5054382;28;20431;-60
2022/12/26 06:12:23;;;;;;;12.20;9.25;;;10.40;99.90;;;;;;5057314;28;20083;-61
2022/12/26 06:14:49;;;;;;;12.27;9.15;;;10.20;99.90;;;;;;5059906;28;20039;-60
2022/12/26 06:17:14;;;;;;;14.43;9.52;;;10.10;99.90;;;;;;5059875;28;20032;-61
2022/12/26 06:19:40;;;;;;;12.73;9.20;;;10.20;99.90;;;;;;5057248;28;20041;-60
2022/12/26 06:22:06;;;;;;;12.90;9.80;;;10.00;99.90;;;;;;5054818;28;20083;-60
2022/12/26 06:24:31;;;;;;;13.13;8.95;;;9.90;99.90;;;;;;5060773;28;20100;-60
2022/12/26 06:26:57;;;;;;;12.18;9.10;;;9.80;99.90;;;;;;5059278;28;20048;-60
2022/12/26 06:29:22;;;;;;;12.27;9.18;;;10.00;99.90;;;;;;5055352;28;20037;-61
2022/12/26 06:31:48;;;;;;;16.63;9.68;;;10.20;99.90;;;;;;5062318;28;20040;-60
2022/12/26 06:34:13;;;;;;;11.95;9.25;;;10.10;99.90;;;;;;5060624;28;20043;-61
2022/12/26 06:36:39;;;;;;;12.43;9.60;;;10.20;99.90;;;;;;5063300;28;20048;-61
2022/12/26 06:39:05;;;;;;;11.80;8.77;;;9.90;99.90;;;;;;5055036;28;20021;-60
2022/12/26 06:41:30;;;;;;;11.02;8.70;;;10.00;99.90;;;;;;5060749;28;20052;-61
2022/12/26 06:43:56;;;;;;;14.60;9.07;;;10.00;99.90;;;;;;5058381;28;20060;-61
2022/12/26 06:46:24;;;;;;;11.85;8.75;;;10.10;99.90;;;;;;5066251;28;20040;-61
2022/12/26 06:48:50;;;;;;;13.75;9.48;;;10.10;99.90;;;;;;5059289;28;20036;-60
2022/12/26 06:51:24;;;;;;;12.00;8.82;;;10.20;99.90;;;;;;5059848;28;20119;-61
2022/12/26 06:53:51;;;;;;;11.30;8.90;;;10.20;99.90;;;;;;5066661;28;20119;-61
2022/12/26 06:56:19;;;;;;;11.60;8.90;;;10.30;99.90;;;;;;5054328;28;20049;-61
2022/12/26 06:58:45;;;;;;;14.65;9.38;;;10.30;99.90;;;;;;5062512;28;20550;-60
2022/12/26 07:01:13;;;;;;;12.57;8.90;;;10.30;99.90;;;;;;5061222;28;20029;-61
2022/12/26 07:03:39;;;;;;;11.70;8.70;;;10.40;99.90;;;;;;5055881;28;20540;-61
2022/12/26 07:06:27;;;;;;;15.65;8.82;;;10.40;99.90;;;;;;5054131;28;20025;-60
2022/12/26 07:08:56;;;;;;;12.48;9.23;;;10.50;99.90;;;;;;5064105;28;20041;-61
2022/12/26 07:11:24;;;;;;;14.70;9.52;;;10.60;99.90;;;;;;5057551;28;20515;-61
2022/12/26 07:13:50;;;;;;;12.40;9.38;;;10.70;99.90;;;;;;5055953;28;20037;-60
2022/12/26 07:16:16;;;;;;;15.88;9.18;;;10.40;99.90;;;;;;5063616;28;20407;-60
2022/12/26 07:18:42;;;;;;;12.57;9.23;;;10.40;99.90;;;;;;5064181;28;20557;-60
2022/12/26 07:21:11;;;;;;;12.38;8.93;;;10.30;99.90;;;;;;5061822;28;20305;-61
2022/12/26 07:23:36;;;;;;;11.48;9.00;;;10.20;99.90;;;;;;5061689;28;20063;-60
2022/12/26 07:26:02;;;;;;;17.13;9.43;;;10.20;99.90;;;;;;5054266;28;20084;-60
2022/12/26 07:28:28;;;;;;;13.23;9.95;;;10.20;99.90;;;;;;5054367;28;20475;-60
2022/12/26 07:30:53;;;;;;;15.10;9.20;;;10.30;99.90;;;;;;5057544;28;20040;-60
2022/12/26 07:33:20;;;;;;;14.55;9.45;;;10.30;99.90;;;;;;5060866;28;20044;-60
2022/12/26 07:35:45;;;;;;;12.35;8.93;;;10.40;99.90;;;;;;5067779;28;20037;-60
2022/12/26 07:38:11;;;;;;;13.75;9.18;;;10.40;99.90;;;;;;5060097;28;20053;-59
2022/12/26 07:40:37;;;;;;;11.65;8.98;;;10.40;99.90;;;;;;5059599;28;20429;-59
2022/12/26 07:43:03;;;;;;;13.32;8.68;;;10.40;99.90;;;;;;5057646;28;20123;-60
2022/12/26 07:45:29;;;;;;;12.98;9.70;;;10.40;99.90;;;;;;5060442;28;20037;-60
2022/12/26 07:47:55;;;;;;;13.18;8.73;;;10.50;99.90;;;;;;5057598;28;20052;-60
2022/12/26 07:50:22;;;;;;;12.55;9.23;;;10.50;99.90;;;;;;5059130;28;20653;-59
2022/12/26 07:52:47;;;;;;;14.57;8.45;;;10.50;99.90;;;;;;5061926;28;20068;-61
2022/12/26 07:55:13;;;;;;;15.55;7.43;;;10.40;99.90;;;;;;5058057;28;20057;-60
2022/12/26 07:57:38;;;;;;;9.02;7.43;;;10.40;99.90;;;;;;5058287;28;20029;-60
2022/12/26 08:00:05;;;;;;;9.25;7.40;;;10.50;99.90;;;;;;5059787;28;20513;-60
2022/12/26 08:02:31;;;;;;;11.02;6.88;;;10.50;99.90;;;;;;5058434;28;20064;-60
2022/12/26 08:04:56;;;;;;;9.57;6.30;;;10.50;99.90;;;;;;5058701;28;20060;-60
2022/12/26 08:07:22;;;;;;;9.70;6.18;;;10.50;99.90;;;;;;5066896;28;20032;-60
2022/12/26 08:09:47;;;;;;;9.48;6.63;;;10.50;99.90;;;;;;5058301;28;20037;-61
2022/12/26 08:12:13;;;;;;;7.55;5.28;;;10.70;99.90;;;;;;5062963;28;20427;-60
2022/12/26 08:14:39;;;;;;;8.35;5.45;;;10.60;99.90;;;;;;5068192;28;20459;-61
2022/12/26 08:17:05;;;;;;;7.65;5.20;;;10.70;99.90;;;;;;5063588;28;20078;-61
2022/12/26 08:19:31;;;;;;;6.80;5.18;;;10.60;99.90;;;;;;5065369;28;20029;-60
2022/12/26 08:21:56;;;;;;;6.85;5.05;;;10.50;99.90;;;;;;5059490;28;20033;-60
2022/12/26 08:24:22;;;;;;;5.82;4.45;;;10.60;99.90;;;;;;5057397;28;20076;-61
2022/12/26 08:26:48;;;;;;;6.45;4.28;;;10.70;99.90;;;;;;5057913;28;20082;-61
2022/12/26 08:29:13;;;;;;;6.03;3.88;;;10.60;99.90;;;;;;5054040;28;20041;-61
2022/12/26 08:31:39;;;;;;;4.72;3.88;;;10.60;99.90;;;;;;5060769;28;20115;-61
2022/12/26 08:34:05;;;;;;;10.02;3.42;;;10.70;99.90;;;;;;5063834;28;20423;-61
2022/12/26 08:36:31;;;;;;;5.70;3.97;;;10.70;99.90;;;;;;5066761;28;20025;-62
2022/12/26 08:38:57;;;;;;;7.25;3.30;;;10.70;99.90;;;;;;5060788;28;20063;-61
2022/12/26 08:41:23;;;;;;;5.45;3.45;;;10.70;99.90;;;;;;5059255;28;20021;-61
2022/12/26 08:43:50;;;;;;;6.20;2.83;;;10.60;99.90;;;;;;5060501;28;20040;-61
2022/12/26 08:46:16;;;;;;;5.45;3.17;;;10.60;99.90;;;;;;5065973;28;20037;-62
2022/12/26 08:48:42;;;;;;;4.40;2.78;;;10.60;99.90;;;;;;5056736;28;20051;-61
2022/12/26 08:51:13;;;;;;;9.00;2.60;;;10.60;99.90;;;;;;5053725;28;20044;-60
2022/12/26 08:53:39;;;;;;;5.65;2.63;;;10.60;99.90;;;;;;5061594;28;20037;-60
2022/12/26 08:56:07;;;;;;;8.13;2.63;;;10.60;99.90;;;;;;5071138;28;20032;-60
2022/12/26 08:58:34;;;;;;;5.20;2.30;;;10.50;99.90;;;;;;5061797;28;20060;-61
2022/12/26 09:01:08;;;;;;;3.53;2.33;;;10.50;99.90;;;;;;5060217;28;20462;-61
2022/12/26 09:03:34;;;;;;;3.97;2.30;;;10.30;99.90;;;;;;5061821;28;20033;-61
2022/12/26 09:06:00;;;;;;;4.68;2.03;;;10.30;99.90;;;;;;5063746;28;20037;-61
2022/12/26 09:08:30;;;;;;;5.40;2.30;;;10.30;99.90;;;;;;5057463;28;20099;-61
2022/12/26 09:11:06;;;;;;;4.63;1.70;;;10.20;99.90;;;;;;5062020;28;20391;-63
2022/12/26 09:13:32;;;;;;;4.05;1.95;;;10.30;99.90;;;;;;5059037;28;20712;-62
2022/12/26 09:16:09;;;;;;;3.25;1.85;;;10.40;99.90;;;;;;5058834;28;20659;-63
2022/12/26 09:18:35;;;;;;;6.78;1.98;;;10.40;99.90;;;;;;5055743;28;20038;-62
2022/12/26 09:21:01;;;;;;;3.15;1.80;;;10.40;99.90;;;;;;5063717;28;20033;-62
2022/12/26 09:23:28;;;;;;;3.45;1.85;;;10.40;99.90;;;;;;5059193;28;20040;-63
2022/12/26 09:25:54;;;;;;;4.35;1.70;;;10.50;99.90;;;;;;5062447;28;20119;-62
2022/12/26 09:28:19;;;;;;;5.82;1.55;;;10.50;99.90;;;;;;5061379;28;20119;-62
2022/12/26 09:30:45;;;;;;;2.97;1.55;;;10.40;99.90;;;;;;5058172;28;20494;-61
2022/12/26 09:33:11;;;;;;;3.78;1.60;;;10.40;99.90;;;;;;5061296;28;20046;-61
2022/12/26 09:35:40;;;;;;;3.78;1.48;;;10.40;99.90;;;;;;5069142;28;20036;-62
2022/12/26 09:38:06;;;;;;;4.55;1.80;;;10.40;99.90;;;;;;5055147;28;20033;-62
2022/12/26 09:40:58;;;;;;;3.08;1.98;;;10.50;99.90;;;;;;5064938;28;20058;-61
2022/12/26 09:43:47;;;;;;;5.30;1.70;;;10.60;99.90;;;;;;5061588;28;20104;-61
2022/12/26 09:46:31;;;;;;;5.78;1.83;;;10.70;99.90;;;;;;5054939;28;20029;-61
2022/12/26 09:49:03;;;;;;;3.53;1.95;;;10.70;99.90;;;;;;5064734;28;20043;-61
2022/12/26 09:51:30;;;;;;;3.28;2.08;;;10.70;99.90;;;;;;5061578;28;20041;-61
2022/12/26 09:53:58;;;;;;;5.20;1.90;;;10.70;99.90;;;;;;5053683;28;20082;-61
2022/12/26 09:56:26;;;;;;;4.93;1.70;;;10.60;99.90;;;;;;5058312;28;20659;-61
2022/12/26 09:58:59;;;;;;;5.93;2.00;;;10.70;99.90;;;;;;5057940;28;20040;-62
2022/12/26 10:01:33;;;;;;;4.38;2.03;;;10.70;99.90;;;;;;5065862;28;20033;-61
2022/12/26 10:04:00;;;;;;;3.33;1.90;;;10.70;99.90;;;;;;5057632;28;20044;-62
2022/12/26 10:06:48;;;;;;;5.72;1.80;;;10.70;99.90;;;;;;5054433;28;20063;-61
2022/12/26 10:09:43;;;;;;;4.90;1.88;;;10.80;99.90;;;;;;5060078;28;20067;-63
2022/12/26 10:12:34;;;;;;;7.93;2.10;;;10.80;99.90;;;;;;5056487;28;20024;-61
2022/12/26 10:15:24;;;;;;;5.93;1.88;;;10.90;99.90;;;;;;5064448;28;20029;-62
2022/12/26 10:18:05;;;;;;;3.33;1.63;;;10.90;99.90;;;;;;5061939;28;20053;-62
2022/12/26 10:21:03;;;;;;;6.68;1.48;;;10.80;99.90;;;;;;5064273;28;20056;-61
2022/12/26 10:23:31;;;;;;;4.90;1.38;;;10.90;99.90;;;;;;5052310;28;20036;-61
2022/12/26 10:26:07;;;;;;;10.88;1.60;;;10.90;99.90;;;;;;5060248;28;20120;-61
2022/12/26 10:28:41;;;;;;;4.13;1.48;;;10.90;99.90;;;;;;5059521;28;20067;-61
2022/12/26 10:31:15;;;;;;;8.52;1.52;;;11.00;99.90;;;;;;5059610;28;20037;-62
2022/12/26 10:33:54;;;;;;;4.30;1.50;;;11.00;99.90;;;;;;5064582;28;20054;-61
2022/12/26 10:36:31;;;;;;;6.20;1.90;;;11.10;99.90;;;;;;5058555;28;20119;-63
2022/12/26 10:38:58;;;;;;;3.38;1.50;;;11.10;99.90;;;;;;5057912;28;20032;-62
2022/12/26 10:41:45;;;;;;;3.78;1.60;;;11.10;99.90;;;;;;5071021;28;20499;-62
2022/12/26 10:44:11;;;;;;;3.25;1.20;;;11.20;99.90;;;;;;5061948;28;20040;-61
2022/12/26 10:46:46;;;;;;;5.57;1.65;;;11.20;99.90;;;;;;5066146;28;20388;-63
2022/12/26 10:49:16;;;;;;;4.28;1.35;;;11.30;99.90;;;;;;5064451;28;20198;-62
2022/12/26 10:51:42;;;;;;;4.25;1.60;;;11.30;99.90;;;;;;5064851;28;20523;-62
2022/12/26 10:54:17;;;;;;;7.32;1.85;;;11.40;99.90;;;;;;5061838;28;20041;-62
2022/12/26 10:56:45;;;;;;;4.43;1.50;;;11.50;99.90;;;;;;5063351;28;20119;-63
2022/12/26 10:59:16;;;;;;;6.70;1.30;;;11.60;99.90;;;;;;5064887;28;20450;-62
2022/12/26 11:01:46;;;;;;;6.13;1.40;;;11.60;99.90;;;;;;5061403;28;20052;-63
2022/12/26 11:04:25;;;;;;;5.10;1.27;;;11.60;99.90;;;;;;5068192;28;20089;-62
2022/12/26 11:06:53;;;;;;;3.88;1.10;;;11.60;99.90;;;;;;5059745;28;20116;-62
2022/12/26 11:09:41;;;;;;;9.80;1.50;;;11.70;99.90;;;;;;5061252;28;20063;-61
2022/12/26 11:12:20;;;;;;;6.50;1.20;;;11.60;99.90;;;;;;5054408;28;20361;-62
2022/12/26 11:14:45;;;;;;;7.50;1.35;;;11.70;99.90;;;;;;5058721;28;20052;-62
2022/12/26 11:17:22;;;;;;;4.35;1.10;;;11.70;99.90;;;;;;5058873;28;20064;-63
2022/12/26 11:19:48;;;;;;;5.45;1.13;;;11.60;99.90;;;;;;5063027;28;20442;-64
2022/12/26 11:22:28;;;;;;;3.33;1.20;;;11.70;99.90;;;;;;5062477;28;20036;-63
2022/12/26 11:25:21;;;;;;;6.55;1.20;;;11.70;99.90;;;;;;5071209;28;20048;-62
2022/12/26 11:27:53;;;;;;;5.20;1.08;;;11.70;99.90;;;;;;5065844;28;20503;-63
2022/12/26 11:30:33;;;;;;;6.85;1.58;;;11.60;99.90;;;;;;5059399;28;20047;-61
2022/12/26 11:33:16;;;;;;;4.68;1.10;;;11.60;99.90;;;;;;5064387;28;20060;-62
2022/12/26 11:35:49;;;;;;;6.88;1.52;;;11.60;99.90;;;;;;5059086;28;20032;-62
2022/12/26 11:38:33;;;;;;;4.75;1.05;;;11.50;99.90;;;;;;5064697;28;20047;-61
2022/12/26 11:43:51;;;;;;;5.85;1.27;;;11.40;99.90;;;;;;5060587;28;20598;-62
2022/12/26 11:46:17;;;;;;;4.38;1.00;;;11.40;99.90;;;;;;5062556;28;20470;-62
2022/12/26 11:48:49;;;;;;;5.47;1.20;;;11.40;99.90;;;;;;5056739;28;20036;-62
2022/12/26 11:51:15;;;;;;;3.95;1.13;;;11.40;99.90;;;;;;5062460;28;20119;-62
2022/12/26 11:53:41;;;;;;;4.53;1.20;;;11.30;99.90;;;;;;5065828;28;20036;-63
2022/12/26 11:56:07;;;;;;;5.93;1.25;;;11.30;99.90;;;;;;5070825;28;20461;-61
2022/12/26 11:58:34;;;;;;;2.67;1.13;;;11.30;99.90;;;;;;5064479;28;20073;-63
2022/12/26 12:00:59;;;;;;;1.63;0.90;;;11.20;99.90;;;;;;5057880;28;20049;-61
2022/12/26 12:03:46;;;;;;;5.70;1.45;;;11.20;99.90;;;;;;5059926;28;20424;-61
2022/12/26 12:06:14;;;;;;;2.67;1.02;;;11.20;99.90;;;;;;5056430;28;24207;-62
2022/12/26 12:09:09;;;;;;;4.18;1.10;;;11.30;99.90;;;;;;5055983;28;20040;-61
2022/12/26 12:11:53;;;;;;;5.78;1.40;;;11.20;99.90;;;;;;5006697;28;20033;-61
2022/12/26 12:14:37;;;;;;;7.47;1.65;;;11.20;99.90;;;;;;5054321;28;20037;-61
2022/12/26 12:17:18;;;;;;;4.30;1.38;;;11.30;99.90;;;;;;5058358;28;20463;-62
2022/12/26 12:20:05;;;;;;;5.40;1.38;;;11.30;99.90;;;;;;5063645;28;20514;-63
2022/12/26 12:23:01;;;;;;;3.30;1.27;;;11.20;99.90;;;;;;5063760;28;20033;-62
2022/12/26 12:25:40;;;;;;;3.70;1.00;;;10.90;99.90;;;;;;5057309;28;20039;-61
2022/12/26 12:28:30;;;;;;;6.07;0.80;;;10.80;99.90;;;;;;5055206;28;20512;-60
2022/12/26 12:31:24;;;;;;;5.72;1.13;;;10.10;99.90;;;;;;5069312;28;20033;-60
2022/12/26 12:34:02;;;;;;;4.00;1.13;;;10.00;99.90;;;;;;5060549;28;20840;-61
2022/12/26 12:36:39;;;;;;;6.88;1.20;;;9.80;99.90;;;;;;5068500;28;20052;-60
2022/12/26 12:39:25;;;;;;;4.63;1.15;;;9.80;99.90;;;;;;5063529;28;20058;-60
2022/12/26 12:42:10;;;;;;;3.15;1.17;;;9.80;99.90;;;;;;5058844;28;20508;-61
2022/12/26 12:45:04;;;;;;;6.15;1.23;;;9.70;99.90;;;;;;5059469;28;20131;-60
2022/12/26 12:48:02;;;;;;;6.68;1.20;;;9.80;99.90;;;;;;5056472;28;20044;-60
2022/12/26 12:50:36;;;;;;;5.28;1.35;;;9.80;99.90;;;;;;5045676;28;20120;-60
2022/12/26 12:53:48;;;;;;;6.35;1.60;;;9.90;99.90;;;;;;5067481;28;20484;-60
2022/12/26 12:56:35;;;;;;;5.65;1.60;;;9.90;99.90;;;;;;5060043;28;20472;-61
2022/12/26 12:59:25;;;;;;;4.47;1.65;;;9.90;99.90;;;;;;5068770;28;20186;-60
2022/12/26 13:01:56;;;;;;;4.70;1.40;;;9.80;99.90;;;;;;5061890;28;20063;-61
2022/12/26 13:04:33;;;;;;;6.57;1.55;;;9.80;99.90;;;;;;5060183;28;20120;-60
2022/12/26 13:07:30;;;;;;;5.88;1.95;;;9.80;99.90;;;;;;5057346;28;20500;-61
2022/12/26 13:10:13;;;;;;;7.38;1.92;;;9.90;99.90;;;;;;5049574;28;20032;-61
2022/12/26 13:12:41;;;;;;;6.32;1.85;;;10.00;99.90;;;;;;5063723;28;20056;-61
2022/12/26 13:15:23;;;;;;;8.00;2.00;;;10.00;99.90;;;;;;5062274;28;20506;-61
2022/12/26 13:18:06;;;;;;;8.07;2.67;;;9.90;99.90;;;;;;5063319;28;20116;-61
2022/12/26 13:20:43;;;;;;;6.30;2.20;;;9.90;99.90;;;;;;5066522;28;20040;-61
2022/12/26 13:26:24;;;;;;;6.65;2.00;;;9.80;99.90;;;;;;5070043;28;20031;-62
2022/12/26 13:28:59;;;;;;;6.15;2.10;;;9.70;99.90;;;;;;5062124;28;20529;-61
2022/12/26 13:31:30;;;;;;;8.50;2.17;;;9.60;99.90;;;;;;5064149;28;20484;-61
2022/12/26 13:33:55;;;;;;;9.80;2.22;;;9.50;99.90;;;;;;5060743;28;20044;-61
2022/12/26 13:36:33;;;;;;;7.55;2.10;;;9.60;99.90;;;;;;5061934;28;20040;-61
2022/12/26 13:39:00;;;;;;;8.75;2.13;;;9.40;99.90;;;;;;5059050;28;20051;-62
2022/12/26 13:44:18;;;;;;;6.13;1.70;;;9.40;99.90;;;;;;5061130;28;20126;-62
2022/12/26 13:46:46;;;;;;;6.78;1.73;;;9.30;99.90;;;;;;5055610;28;20115;-61
2022/12/26 13:49:37;;;;;;;6.40;1.63;;;9.20;99.90;;;;;;5063350;28;20439;-61
2022/12/26 13:52:14;;;;;;;9.20;1.70;;;9.20;99.90;;;;;;5066036;28;20043;-63
2022/12/26 13:54:46;;;;;;;6.47;1.80;;;9.20;99.90;;;;;;5064720;28;20036;-62
2022/12/26 13:57:20;;;;;;;4.68;1.90;;;9.30;99.90;;;;;;5061005;28;20439;-62
2022/12/26 14:00:03;;;;;;;8.23;2.15;;;9.30;99.90;;;;;;5053405;28;20116;-62
2022/12/26 14:02:59;;;;;;;6.50;1.60;;;9.40;99.90;;;;;;5055125;28;20562;-61
2022/12/26 14:05:31;;;;;;;7.72;2.00;;;9.30;99.90;;;;;;5054710;28;20384;-61
2022/12/26 14:08:15;;;;;;;9.30;2.55;;;9.30;99.90;;;;;;5066334;28;20450;-61
2022/12/26 14:11:12;;;;;;;12.65;2.70;;;9.20;99.90;;;;;;5059828;28;20032;-63
2022/12/26 14:14:06;;;;;;;13.50;2.83;;;9.20;99.90;;;;;;5058471;28;20032;-62
2022/12/26 14:16:59;;;;;;;8.52;2.95;;;9.20;99.90;;;;;;5051482;28;20044;-62
2022/12/26 14:19:40;;;;;;;12.63;3.58;;;9.30;99.90;;;;;;5055785;28;20094;-61
2022/12/26 14:22:34;;;;;;;9.27;3.72;;;9.20;99.90;;;;;;5058065;28;20040;-61
2022/12/26 14:25:09;;;;;;;11.70;3.13;;;9.10;99.90;;;;;;5053297;28;20032;-61
2022/12/26 14:28:13;;;;;;;10.77;3.65;;;9.10;99.90;;;;;;5048273;28;20459;-61
2022/12/26 14:31:04;;;;;;;10.07;4.00;;;9.20;99.90;;;;;;5055420;28;20040;-61
2022/12/26 14:33:38;;;;;;;11.10;3.75;;;9.20;99.90;;;;;;5031891;28;20131;-61
2022/12/26 14:36:11;;;;;;;9.48;3.72;;;9.10;99.90;;;;;;5061319;28;20063;-62
2022/12/26 14:39:02;;;;;;;11.30;4.55;;;9.00;99.90;;;;;;5063696;28;20496;-63
2022/12/26 14:44:42;;;;;;;12.85;4.38;;;9.00;99.90;;;;;;5046066;28;20047;-61
2022/12/26 14:47:09;;;;;;;11.18;4.32;;;8.90;99.90;;;;;;5057418;28;20047;-62
2022/12/26 14:49:36;;;;;;;14.70;4.10;;;8.90;99.90;;;;;;5061037;28;20563;-62
2022/12/26 14:52:23;;;;;;;9.18;2.50;;;9.10;99.90;;;;;;5060603;28;20032;-62
2022/12/26 14:54:50;;;;;;;6.20;1.95;;;9.00;99.90;;;;;;5053034;28;20060;-61
2022/12/26 14:57:39;;;;;;;7.90;1.90;;;8.90;99.90;;;;;;5068816;28;20044;-61
2022/12/26 15:00:25;;;;;;;8.63;1.80;;;8.60;99.90;;;;;;5065054;28;20032;-61
2022/12/26 15:02:57;;;;;;;3.75;1.60;;;8.60;99.90;;;;;;5058848;28;20029;-61
2022/12/26 15:05:35;;;;;;;7.43;1.88;;;8.40;99.90;;;;;;5063794;28;20055;-61
2022/12/26 15:08:29;;;;;;;5.15;1.50;;;8.40;99.90;;;;;;5060749;28;20045;-61
2022/12/26 15:11:19;;;;;;;6.45;1.58;;;8.30;99.90;;;;;;5063276;28;20040;-62
2022/12/26 15:14:21;;;;;;;3.70;1.23;;;8.20;99.90;;;;;;5069399;28;20036;-61
2022/12/26 15:17:10;;;;;;;5.47;1.40;;;7.90;99.90;;;;;;5064374;28;20059;-62
2022/12/26 15:19:44;;;;;;;4.30;1.25;;;7.80;99.90;;;;;;5061623;28;20032;-61
2022/12/26 15:22:26;;;;;;;10.02;1.67;;;7.80;99.90;;;;;;5062550;28;20032;-61
2022/12/26 15:25:23;;;;;;;7.10;1.67;;;7.80;99.90;;;;;;5054414;28;20036;-62
2022/12/26 15:28:34;;;;;;;6.20;2.10;;;7.70;99.90;;;;;;5064070;28;20032;-61
2022/12/26 15:31:24;;;;;;;5.90;1.92;;;7.60;99.90;;;;;;5053584;28;20487;-62
2022/12/26 15:34:05;;;;;;;8.50;1.75;;;7.70;99.90;;;;;;5065002;28;20561;-63